createdAt,value
2019-05-14T00:02:21.460Z,98480.34
2019-05-14T00:04:51.026Z,98479.39
2019-05-14T00:07:19.085Z,98492.50
2019-05-14T00:09:47.074Z,98481.71
2019-05-14T00:12:15.127Z,98482.66
2019-05-14T00:14:43.957Z,98474.75
2019-05-14T00:17:12.284Z,98483.86
2019-05-14T00:19:41.698Z,98483.89
2019-05-14T00:22:11.726Z,98476.70
2019-05-14T00:24:41.711Z,98472.53
2019-05-14T00:27:11.514Z,98471.97
2019-05-14T00:29:41.860Z,98468.86
2019-05-14T00:32:11.158Z,98468.92
2019-05-14T00:34:39.297Z,98463.35
2019-05-14T00:37:07.297Z,98456.10
2019-05-14T00:39:35.293Z,98463.92
2019-05-14T00:42:03.442Z,98469.81
2019-05-14T00:44:32.601Z,98470.94
2019-05-14T00:47:02.166Z,98464.62
2019-05-14T00:49:31.688Z,98453.61
2019-05-14T00:52:02.076Z,98467.50
2019-05-14T00:54:32.042Z,98461.10
2019-05-14T00:57:01.497Z,98455.64
2019-05-14T00:59:31.985Z,98453.35
2019-05-14T01:02:02.667Z,98451.06
2019-05-14T01:04:31.213Z,98450.77
2019-05-14T01:07:01.418Z,98447.95
2019-05-14T01:09:31.481Z,98450.53
2019-05-14T01:12:01.769Z,98448.52
2019-05-14T01:14:31.740Z,98441.42
2019-05-14T01:17:01.990Z,98452.39
2019-05-14T01:19:31.519Z,98444.58
2019-05-14T01:22:01.735Z,98450.82
2019-05-14T01:24:32.146Z,98446.63
2019-05-14T01:27:01.645Z,98441.36
2019-05-14T01:29:31.634Z,98438.25
2019-05-14T01:32:01.278Z,98437.78
2019-05-14T01:34:29.421Z,98439.41
2019-05-14T01:36:57.270Z,98445.33
2019-05-14T01:39:26.140Z,98442.92
2019-05-14T01:41:55.458Z,98442.69
2019-05-14T01:44:23.313Z,98434.00
2019-05-14T01:46:51.410Z,98435.09
2019-05-14T01:49:19.381Z,98435.65
2019-05-14T01:51:48.257Z,98431.12
2019-05-14T01:54:16.437Z,98433.44
2019-05-14T01:56:44.534Z,98428.20
2019-05-14T01:59:12.573Z,98432.78
2019-05-14T02:01:41.420Z,98434.86
2019-05-14T02:04:11.636Z,98429.63
2019-05-14T02:06:41.297Z,98426.17
2019-05-14T02:09:11.123Z,98424.73
2019-05-14T02:11:41.562Z,98421.75
2019-05-14T02:14:11.522Z,98418.03
2019-05-14T02:16:42.014Z,98420.12
2019-05-14T02:19:11.416Z,98410.02
2019-05-14T02:21:39.372Z,98409.32
2019-05-14T02:24:07.338Z,98410.05
2019-05-14T02:26:35.337Z,98406.61
2019-05-14T02:29:03.306Z,98399.89
2019-05-14T02:31:31.233Z,98392.71
2019-05-14T02:33:59.384Z,98398.70
2019-05-14T02:36:30.635Z,98395.81
2019-05-14T02:39:00.327Z,98392.31
2019-05-14T02:41:29.907Z,98386.64
2019-05-14T02:43:59.389Z,98391.58
2019-05-14T02:46:29.502Z,98391.19
2019-05-14T02:48:59.537Z,98387.97
2019-05-14T02:51:29.709Z,98395.22
2019-05-14T02:53:59.184Z,98383.36
2019-05-14T02:56:29.643Z,98380.19
2019-05-14T02:58:59.773Z,98374.38
2019-05-14T03:01:26.435Z,98372.55
2019-05-14T03:03:54.366Z,98374.89
2019-05-14T03:06:22.488Z,98381.62
2019-05-14T03:08:50.434Z,98370.73
2019-05-14T03:11:20.046Z,98375.36
2019-05-14T03:13:49.469Z,98375.23
2019-05-14T03:16:28.158Z,98373.00
2019-05-14T03:18:50.292Z,98370.13
2019-05-14T03:21:19.838Z,98374.83
2019-05-14T03:23:49.655Z,98372.38
2019-05-14T03:26:19.823Z,98373.16
2019-05-14T03:28:49.590Z,98372.61
2019-05-14T03:31:22.397Z,98371.75
2019-05-14T03:33:52.572Z,98362.91
2019-05-14T03:36:25.202Z,98369.95
2019-05-14T03:38:50.143Z,98367.09
2019-05-14T03:41:19.470Z,98357.83
2019-05-14T03:43:49.354Z,98375.25
2019-05-14T03:46:20.261Z,98359.53
2019-05-14T03:48:49.129Z,98371.99
2019-05-14T03:51:16.341Z,98369.01
2019-05-14T03:53:57.211Z,98375.22
2019-05-14T03:56:14.198Z,98372.68
2019-05-14T03:58:43.213Z,98377.17
2019-05-14T04:01:11.316Z,98372.16
2019-05-14T04:03:40.071Z,98379.47
2019-05-14T04:06:10.042Z,98379.98
2019-05-14T04:08:39.477Z,98381.14
2019-05-14T04:11:09.612Z,98380.63
2019-05-14T04:13:40.652Z,98378.09
2019-05-14T04:16:11.291Z,98379.19
2019-05-14T04:18:40.812Z,98378.72
2019-05-14T04:21:10.552Z,98385.56
2019-05-14T04:23:40.185Z,98381.60
2019-05-14T04:26:09.462Z,98383.08
2019-05-14T04:28:39.327Z,98386.19
2019-05-14T04:31:09.852Z,98382.06
2019-05-14T04:33:39.431Z,98389.75
2019-05-14T04:36:09.865Z,98395.13
2019-05-14T04:38:40.963Z,98390.95
2019-05-14T04:41:10.393Z,98390.61
2019-05-14T04:43:40.061Z,98385.84
2019-05-14T04:46:10.317Z,98397.36
2019-05-14T04:48:42.955Z,98384.41
2019-05-14T04:51:09.830Z,98381.88
2019-05-14T04:53:39.344Z,98389.54
2019-05-14T04:56:09.826Z,98392.59
2019-05-14T04:58:40.494Z,98388.55
2019-05-14T05:01:09.808Z,98390.18
2019-05-14T05:03:39.731Z,98384.97
2019-05-14T05:06:14.375Z,98390.05
2019-05-14T05:08:51.257Z,98388.95
2019-05-14T05:11:30.163Z,98391.64
2019-05-14T05:14:09.147Z,98390.17
2019-05-14T05:16:49.188Z,98383.25
2019-05-14T05:19:39.087Z,98381.42
2019-05-14T05:22:23.176Z,98380.73
2019-05-14T05:25:09.218Z,98384.92
2019-05-14T05:27:59.835Z,98378.31
2019-05-14T05:30:42.935Z,98388.15
2019-05-14T05:33:21.925Z,98396.10
2019-05-14T05:35:50.846Z,98381.08
2019-05-14T05:38:18.735Z,98385.56
2019-05-14T05:40:48.538Z,98377.16
2019-05-14T05:43:16.526Z,98381.84
2019-05-14T05:45:44.438Z,98387.77
2019-05-14T05:48:12.335Z,98385.04
2019-05-14T05:50:40.256Z,98383.99
2019-05-14T05:53:09.003Z,98385.84
2019-05-14T05:55:39.392Z,98388.47
2019-05-14T05:58:08.704Z,98380.92
2019-05-14T06:00:39.915Z,98368.11
2019-05-14T06:03:10.711Z,98385.42
2019-05-14T06:05:38.986Z,98385.03
2019-05-14T06:08:08.660Z,98369.05
2019-05-14T06:10:39.709Z,98348.27
2019-05-14T06:13:08.904Z,98383.84
2019-05-14T06:15:45.546Z,98388.59
2019-05-14T06:18:15.193Z,98384.46
2019-05-14T06:20:38.688Z,98384.35
2019-05-14T06:23:08.447Z,98384.30
2019-05-14T06:25:36.328Z,98384.30
2019-05-14T06:28:04.462Z,98398.56
2019-05-14T06:30:39.285Z,98396.38
2019-05-14T06:33:09.040Z,98395.47
2019-05-14T06:35:39.353Z,98391.01
2019-05-14T06:38:08.721Z,98387.97
2019-05-14T06:40:36.195Z,98392.81
2019-05-14T06:43:04.136Z,98380.50
2019-05-14T06:45:31.985Z,98385.90
2019-05-14T06:48:00.017Z,98389.24
2019-05-14T06:50:29.133Z,98390.97
2019-05-14T06:52:58.121Z,98392.36
2019-05-14T06:55:28.292Z,98381.92
2019-05-14T06:57:58.386Z,98389.24
2019-05-14T07:00:28.591Z,98379.39
2019-05-14T07:02:58.296Z,98380.03
2019-05-14T07:05:28.130Z,98379.59
2019-05-14T07:07:59.535Z,98366.59
2019-05-14T07:10:28.541Z,98370.63
2019-05-14T07:12:56.046Z,98371.85
2019-05-14T07:15:24.189Z,98363.63
2019-05-14T07:17:52.133Z,98371.22
2019-05-14T07:20:20.081Z,98339.14
2019-05-14T07:22:48.496Z,98367.13
2019-05-14T07:25:18.402Z,98366.03
2019-05-14T07:27:46.307Z,98364.58
2019-05-14T07:30:14.298Z,98371.42
2019-05-14T07:32:42.555Z,98370.19
2019-05-14T07:35:10.758Z,98373.92
2019-05-14T07:37:39.627Z,98367.18
2019-05-14T07:40:09.644Z,98333.53
2019-05-14T07:42:38.337Z,98365.05
2019-05-14T07:45:09.368Z,98360.08
2019-05-14T07:47:38.855Z,98360.54
2019-05-14T07:50:08.584Z,98363.30
2019-05-14T07:52:36.333Z,98363.11
2019-05-14T07:55:05.022Z,98358.12
2019-05-14T07:57:33.192Z,98349.94
2019-05-14T08:00:01.001Z,98354.92
2019-05-14T08:02:29.160Z,98354.92
2019-05-14T08:04:58.022Z,98353.36
2019-05-14T08:07:28.043Z,98349.37
2019-05-14T08:09:58.296Z,98351.08
2019-05-14T08:12:25.842Z,98341.23
2019-05-14T08:15:13.161Z,98338.16
2019-05-14T08:17:24.080Z,98346.44
2019-05-14T08:19:52.034Z,98344.29
2019-05-14T08:22:20.058Z,98345.38
2019-05-14T08:24:48.905Z,98341.66
2019-05-14T08:27:19.186Z,98331.41
2019-05-14T08:29:48.722Z,98332.01
2019-05-14T08:32:19.108Z,98331.80
2019-05-14T08:34:47.998Z,98335.74
2019-05-14T08:37:16.092Z,98337.99
2019-05-14T08:39:44.177Z,98327.67
2019-05-14T08:42:12.168Z,98333.56
2019-05-14T08:44:40.263Z,98330.48
2019-05-14T08:47:09.495Z,98325.32
2019-05-14T08:49:45.981Z,98325.12
2019-05-14T08:52:08.763Z,98290.28
2019-05-14T08:54:39.126Z,98315.39
2019-05-14T08:57:09.855Z,98306.99
2019-05-14T08:59:39.582Z,98307.77
2019-05-14T09:02:10.654Z,98304.77
2019-05-14T09:04:42.866Z,98301.37
2019-05-14T09:07:09.517Z,98297.58
2019-05-14T09:09:38.194Z,98294.36
2019-05-14T09:12:12.152Z,98276.39
2019-05-14T09:14:38.684Z,98289.38
2019-05-14T09:17:06.173Z,98287.63
2019-05-14T09:19:34.315Z,98279.02
2019-05-14T09:22:02.299Z,98269.85
2019-05-14T09:24:30.389Z,98265.15
2019-05-14T09:26:59.231Z,98266.01
2019-05-14T09:29:29.755Z,98258.06
2019-05-14T09:31:58.937Z,98258.83
2019-05-14T09:34:28.974Z,98265.87
2019-05-14T09:36:59.155Z,98248.83
2019-05-14T09:39:28.949Z,98250.21
2019-05-14T09:41:58.152Z,98255.11
2019-05-14T09:44:26.159Z,98236.76
2019-05-14T09:46:54.140Z,98245.86
2019-05-14T09:49:22.100Z,98239.21
2019-05-14T09:51:50.198Z,98235.77
2019-05-14T09:54:19.622Z,98231.55
2019-05-14T09:56:48.508Z,98222.25
2019-05-14T09:59:18.524Z,98233.80
2019-05-14T10:01:50.417Z,98232.45
2019-05-14T10:04:16.718Z,98228.33
2019-05-14T10:06:44.914Z,98225.02
2019-05-14T10:09:13.151Z,98217.19
2019-05-14T10:11:41.278Z,98215.69
2019-05-14T10:14:09.278Z,98210.76
2019-05-14T10:16:38.558Z,98211.84
2019-05-14T10:19:06.763Z,98213.88
2019-05-14T10:21:35.048Z,98202.59
2019-05-14T10:24:03.029Z,98197.66
2019-05-14T10:26:31.090Z,98202.20
2019-05-14T10:29:00.099Z,98196.67
2019-05-14T10:31:28.978Z,98196.10
2019-05-14T10:33:58.854Z,98194.11
2019-05-14T10:36:30.081Z,98190.94
2019-05-14T10:38:58.915Z,98193.56
2019-05-14T10:41:29.130Z,98200.23
2019-05-14T10:43:59.085Z,98208.48
2019-05-14T10:46:28.969Z,98208.14
2019-05-14T10:48:58.671Z,98211.80
2019-05-14T10:51:28.353Z,98212.20
2019-05-14T10:53:59.140Z,98210.48
2019-05-14T10:56:29.513Z,98212.98
2019-05-14T10:58:58.253Z,98211.98
2019-05-14T11:01:28.247Z,98198.38
2019-05-14T11:03:55.948Z,98194.83
2019-05-14T11:06:23.812Z,98189.38
2019-05-14T11:08:51.713Z,98183.02
2019-05-14T11:11:19.846Z,98177.31
2019-05-14T11:13:48.103Z,98174.88
2019-05-14T11:16:18.796Z,98170.98
2019-05-14T11:18:49.268Z,98170.91
2019-05-14T11:21:24.910Z,98171.23
2019-05-14T11:23:45.953Z,98158.47
2019-05-14T11:26:14.468Z,98173.22
2019-05-14T11:28:42.404Z,98165.59
2019-05-14T11:31:10.505Z,98154.13
2019-05-14T11:33:38.952Z,98173.02
2019-05-14T11:36:09.294Z,98166.07
2019-05-14T11:38:37.890Z,98161.82
2019-05-14T11:41:06.103Z,98155.73
2019-05-14T11:43:34.106Z,98135.41
2019-05-14T11:46:02.020Z,98135.78
2019-05-14T11:48:30.054Z,98160.69
2019-05-14T11:50:59.500Z,98155.34
2019-05-14T11:53:27.732Z,98159.25
2019-05-14T11:55:55.781Z,98148.03
2019-05-14T11:58:23.760Z,98163.05
2019-05-14T12:00:51.861Z,98152.23
2019-05-14T12:03:20.023Z,98158.32
2019-05-14T12:05:49.453Z,98161.25
2019-05-14T12:08:18.666Z,98151.30
2019-05-14T12:10:46.769Z,98157.35
2019-05-14T12:13:14.518Z,98120.52
2019-05-14T12:15:42.504Z,98145.41
2019-05-14T12:18:10.626Z,98145.77
2019-05-14T12:20:39.644Z,98144.86
2019-05-14T12:23:08.915Z,98140.25
2019-05-14T12:25:36.936Z,98140.86
2019-05-14T12:28:04.946Z,98134.56
2019-05-14T12:30:32.782Z,98139.22
2019-05-14T12:33:00.651Z,98130.40
2019-05-14T12:35:29.383Z,98129.26
2019-05-14T12:37:58.664Z,98125.73
2019-05-14T12:40:28.830Z,98121.46
2019-05-14T12:42:59.201Z,98120.22
2019-05-14T12:45:29.649Z,98113.74
2019-05-14T12:47:58.458Z,98118.17
2019-05-14T12:50:26.315Z,98117.87
2019-05-14T12:52:54.348Z,98119.95
2019-05-14T12:55:22.431Z,98118.59
2019-05-14T12:57:50.395Z,98117.47
2019-05-14T13:00:18.641Z,98094.51
2019-05-14T13:02:46.870Z,98107.16
2019-05-14T13:05:14.699Z,98107.56
2019-05-14T13:07:42.324Z,98101.34
2019-05-14T13:10:10.977Z,98096.47
2019-05-14T13:12:39.245Z,98088.79
2019-05-14T13:15:08.747Z,98058.63
2019-05-14T13:17:38.913Z,98086.89
2019-05-14T13:20:13.249Z,98086.73
2019-05-14T13:22:44.940Z,98084.70
2019-05-14T13:25:09.903Z,98089.91
2019-05-14T13:27:39.176Z,98083.19
2019-05-14T13:30:09.103Z,98079.73
2019-05-14T13:32:39.083Z,98076.28
2019-05-14T13:35:10.468Z,98078.37
2019-05-14T13:37:39.559Z,98072.12
2019-05-14T13:40:09.228Z,98064.23
2019-05-14T13:42:39.389Z,98065.75
2019-05-14T13:45:06.963Z,98063.56
2019-05-14T13:47:34.980Z,98057.48
2019-05-14T13:50:02.851Z,98060.13
2019-05-14T13:52:31.932Z,98055.38
2019-05-14T13:54:59.910Z,98055.61
2019-05-14T13:57:28.709Z,98047.17
2019-05-14T13:59:59.008Z,98047.52
2019-05-14T14:02:28.860Z,98050.09
2019-05-14T14:04:58.839Z,98045.18
2019-05-14T14:07:26.825Z,98049.79
2019-05-14T14:09:54.689Z,98041.20
2019-05-14T14:12:25.108Z,98038.19
2019-05-14T14:14:52.477Z,98035.97
2019-05-14T14:17:20.457Z,98033.63
2019-05-14T14:19:48.405Z,98023.55
2019-05-14T14:22:19.091Z,98026.28
2019-05-14T14:24:48.707Z,98020.16
2019-05-14T14:27:19.385Z,98024.86
2019-05-14T14:29:49.139Z,98016.02
2019-05-14T14:32:18.590Z,98015.38
2019-05-14T14:34:46.214Z,98013.78
2019-05-14T14:37:14.391Z,98009.91
2019-05-14T14:39:42.645Z,98004.13
2019-05-14T14:42:10.646Z,98004.30
2019-05-14T14:44:39.295Z,97989.66
2019-05-14T14:47:08.018Z,97996.58
2019-05-14T14:49:42.236Z,98002.59
2019-05-14T14:52:06.241Z,97996.16
2019-05-14T14:54:34.330Z,97992.15
2019-05-14T14:57:02.487Z,97987.69
2019-05-14T14:59:30.719Z,97985.44
2019-05-14T15:01:59.715Z,97986.20
2019-05-14T15:04:29.590Z,97975.76
2019-05-14T15:06:59.774Z,97978.88
2019-05-14T15:09:27.500Z,97970.92
2019-05-14T15:11:55.374Z,97964.66
2019-05-14T15:14:23.585Z,97968.85
2019-05-14T15:16:51.567Z,97973.95
2019-05-14T15:19:19.996Z,97968.81
2019-05-14T15:21:48.858Z,97970.05
2019-05-14T15:24:19.673Z,97962.78
2019-05-14T15:26:47.808Z,97975.00
2019-05-14T15:29:18.523Z,97964.35
2019-05-14T15:31:48.377Z,97961.53
2019-05-14T15:34:15.802Z,97958.67
2019-05-14T15:36:43.885Z,97960.38
2019-05-14T15:39:12.009Z,97958.66
2019-05-14T15:41:40.101Z,97959.22
2019-05-14T15:44:08.991Z,97955.91
2019-05-14T15:46:41.608Z,97951.98
2019-05-14T15:49:08.987Z,97957.38
2019-05-14T15:51:39.749Z,97949.53
2019-05-14T15:54:32.640Z,97954.05
2019-05-14T15:56:39.488Z,97956.47
2019-05-14T15:59:08.747Z,97964.56
2019-05-14T16:01:39.614Z,97957.98
2019-05-14T16:04:11.152Z,97964.44
2019-05-14T16:06:38.556Z,97964.52
2019-05-14T16:09:06.625Z,97963.19
2019-05-14T16:11:34.637Z,97964.64
2019-05-14T16:14:02.640Z,97958.10
2019-05-14T16:16:30.463Z,97952.13
2019-05-14T16:18:59.762Z,97954.02
2019-05-14T16:21:28.919Z,97952.66
2019-05-14T16:23:58.825Z,97956.59
2019-05-14T16:26:29.214Z,97954.66
2019-05-14T16:28:59.215Z,97953.03
2019-05-14T16:31:28.071Z,97954.67
2019-05-14T16:33:56.868Z,97936.73
2019-05-14T16:36:24.666Z,97960.42
2019-05-14T16:38:52.405Z,97956.36
2019-05-14T16:41:20.046Z,97947.37
2019-05-14T16:43:49.565Z,97938.44
2019-05-14T16:46:18.287Z,97942.55
2019-05-14T16:48:48.673Z,97933.14
2019-05-14T16:51:19.122Z,97909.88
2019-05-14T16:53:48.607Z,97919.23
2019-05-14T16:56:18.453Z,97919.47
2019-05-14T16:58:46.602Z,97914.46
2019-05-14T17:01:14.743Z,97917.39
2019-05-14T17:03:42.661Z,97919.98
2019-05-14T17:06:10.694Z,97918.45
2019-05-14T17:08:39.344Z,97927.19
2019-05-14T17:11:08.937Z,97925.55
2019-05-14T17:13:38.191Z,97929.56
2019-05-14T17:16:08.309Z,97931.39
2019-05-14T17:18:36.182Z,97922.07
2019-05-14T17:21:04.181Z,97929.03
2019-05-14T17:23:31.947Z,97926.33
2019-05-14T17:26:00.081Z,97924.06
2019-05-14T17:28:28.649Z,97934.81
2019-05-14T17:30:56.842Z,97924.06
2019-05-14T17:33:24.584Z,97916.47
2019-05-14T17:35:52.580Z,97921.81
2019-05-14T17:38:22.198Z,97920.63
2019-05-14T17:40:49.861Z,97917.09
2019-05-14T17:43:19.466Z,97909.73
2019-05-14T17:45:48.295Z,97908.28
2019-05-14T17:48:18.323Z,97913.23
2019-05-14T17:50:48.486Z,97917.28
2019-05-14T17:53:18.194Z,97912.77
2019-05-14T17:55:48.204Z,97909.77
2019-05-14T17:58:18.618Z,97912.77
2019-05-14T18:00:45.949Z,97913.86
2019-05-14T18:03:13.947Z,97911.16
2019-05-14T18:05:43.755Z,97913.44
2019-05-14T18:08:11.958Z,97918.22
2019-05-14T18:10:39.797Z,97917.86
2019-05-14T18:13:09.275Z,97914.80
2019-05-14T18:15:39.466Z,97912.09
2019-05-14T18:18:08.875Z,97897.34
2019-05-14T18:20:39.464Z,97899.38
2019-05-14T18:23:11.483Z,97897.41
2019-05-14T18:25:38.915Z,97896.05
2019-05-14T18:28:09.346Z,97898.94
2019-05-14T18:30:38.623Z,97900.11
2019-05-14T18:33:07.985Z,97895.00
2019-05-14T18:35:42.398Z,97897.61
2019-05-14T18:38:08.278Z,97879.34
2019-05-14T18:40:36.330Z,97894.56
2019-05-14T18:43:04.448Z,97905.30
2019-05-14T18:45:34.231Z,97884.67
2019-05-14T18:48:02.166Z,97902.48
2019-05-14T18:50:30.973Z,97896.06
2019-05-14T18:52:59.838Z,97904.63
2019-05-14T18:55:29.264Z,97898.63
2019-05-14T18:57:59.294Z,97874.24
2019-05-14T19:00:29.443Z,97903.06
2019-05-14T19:02:57.950Z,97901.42
2019-05-14T19:05:29.503Z,97898.70
2019-05-14T19:07:59.270Z,97900.81
2019-05-14T19:10:28.132Z,97887.91
2019-05-14T19:12:58.629Z,97895.95
2019-05-14T19:15:26.364Z,97895.23
2019-05-14T19:17:58.728Z,97903.85
2019-05-14T19:20:28.280Z,97898.27
2019-05-14T19:22:56.450Z,97892.37
2019-05-14T19:25:24.480Z,97889.01
2019-05-14T19:27:52.353Z,97896.01
2019-05-14T19:30:20.395Z,97884.11
2019-05-14T19:32:48.724Z,97888.46
2019-05-14T19:35:18.934Z,97880.66
2019-05-14T19:37:48.815Z,97877.17
2019-05-14T19:40:19.367Z,97877.00
2019-05-14T19:42:48.487Z,97871.37
2019-05-14T19:45:18.929Z,97874.14
2019-05-14T19:47:49.139Z,97867.80
2019-05-14T19:50:18.770Z,97870.70
2019-05-14T19:52:48.739Z,97865.30
2019-05-14T19:55:18.915Z,97862.91
2019-05-14T19:57:49.030Z,97864.38
2019-05-14T20:00:22.853Z,97864.38
2019-05-14T20:02:51.231Z,97854.53
2019-05-14T20:05:19.255Z,97854.20
2019-05-14T20:07:49.062Z,97855.66
2019-05-14T20:10:17.306Z,97854.52
2019-05-14T20:12:45.652Z,97851.56
2019-05-14T20:15:14.036Z,97854.20
2019-05-14T20:17:41.920Z,97850.11
2019-05-14T20:20:10.131Z,97844.61
2019-05-14T20:22:39.239Z,97838.98
2019-05-14T20:25:07.854Z,97838.63
2019-05-14T20:27:36.024Z,97834.67
2019-05-14T20:30:05.094Z,97835.47
2019-05-14T20:32:33.321Z,97840.48
2019-05-14T20:35:01.893Z,97833.96
2019-05-14T20:37:30.093Z,97831.41
2019-05-14T20:39:59.087Z,97839.56
2019-05-14T20:42:29.021Z,97831.39
2019-05-14T20:44:57.173Z,97817.53
2019-05-14T20:47:25.096Z,97830.14
2019-05-14T20:49:53.102Z,97827.91
2019-05-14T20:52:21.045Z,97825.08
2019-05-14T20:54:49.894Z,97815.39
2019-05-14T20:57:24.440Z,97813.11
2019-05-14T20:59:48.325Z,97816.45
2019-05-14T21:02:18.590Z,97809.92
2019-05-14T21:04:53.514Z,97805.94
2019-05-14T21:07:16.239Z,97801.19
2019-05-14T21:09:48.990Z,97810.28
2019-05-14T21:12:18.758Z,97799.88
2019-05-14T21:14:49.171Z,97800.14
2019-05-14T21:17:16.290Z,97802.32
2019-05-14T21:19:44.332Z,97800.31
2019-05-14T21:22:13.289Z,97794.35
2019-05-14T21:24:41.238Z,97802.67
2019-05-14T21:27:09.482Z,97802.20
2019-05-14T21:29:38.212Z,97800.42
2019-05-14T21:32:08.226Z,97788.81
2019-05-14T21:34:38.282Z,97782.13
2019-05-14T21:37:08.838Z,97780.89
2019-05-14T21:39:38.240Z,97787.59
2019-05-14T21:42:07.736Z,97789.45
2019-05-14T21:44:39.186Z,97785.81
2019-05-14T21:47:08.320Z,97779.94
2019-05-14T21:49:38.804Z,97786.58
2019-05-14T21:52:08.888Z,97776.02
2019-05-14T21:54:39.266Z,97773.22
2019-05-14T21:57:08.553Z,97766.61
2019-05-14T21:59:38.875Z,97759.69
2019-05-14T22:02:07.344Z,97755.85
2019-05-14T22:04:35.592Z,97749.19
2019-05-14T22:07:03.626Z,97739.77
2019-05-14T22:09:32.122Z,97741.32
2019-05-14T22:12:00.571Z,97735.97
2019-05-14T22:14:28.611Z,97726.18
2019-05-14T22:16:58.431Z,97712.45
2019-05-14T22:19:28.563Z,97715.63
2019-05-14T22:21:58.719Z,97711.38
2019-05-14T22:24:28.722Z,97709.31
2019-05-14T22:26:58.178Z,97705.73
2019-05-14T22:29:28.484Z,97711.62
2019-05-14T22:31:58.700Z,97708.34
2019-05-14T22:35:33.231Z,97708.09
2019-05-14T22:41:50.668Z,97705.63
2019-05-14T22:44:18.744Z,97705.06
2019-05-14T22:46:48.533Z,97708.27
2019-05-14T22:49:19.142Z,97702.24
2019-05-14T22:51:49.095Z,97700.36
2019-05-14T22:54:17.731Z,97697.96
2019-05-14T22:56:48.150Z,97695.78
2019-05-14T22:59:20.356Z,97687.52
2019-05-14T23:01:48.069Z,97683.52
2019-05-14T23:04:18.066Z,97688.16
2019-05-14T23:06:46.056Z,97672.98
2019-05-14T23:09:16.391Z,97675.52
2019-05-14T23:11:44.045Z,97673.88
2019-05-14T23:14:13.021Z,97676.70
2019-05-14T23:16:41.977Z,97669.97
2019-05-14T23:19:10.318Z,97679.23
2019-05-14T23:21:39.182Z,97672.09
2019-05-14T23:24:09.210Z,97667.41
2019-05-14T23:26:37.463Z,97678.63
2019-05-14T23:29:05.579Z,97667.74
2019-05-14T23:31:33.775Z,97671.38
2019-05-14T23:34:01.895Z,97663.23
2019-05-14T23:36:29.722Z,97659.67
2019-05-14T23:38:59.154Z,97669.84
2019-05-14T23:41:28.634Z,97661.13
2019-05-14T23:43:56.663Z,97658.74
2019-05-14T23:46:24.577Z,97620.91
2019-05-14T23:48:52.490Z,97656.96
2019-05-14T23:51:20.494Z,97649.97
2019-05-14T23:53:48.497Z,97656.23
2019-05-14T23:56:19.125Z,97652.55
2019-05-14T23:58:54.924Z,97646.80
